Time;durP1;ratioP1;P1;durP2;ratioP2;P2;SDS_P1;SDS_P2;PMS_P1;PMS_P2;Temp;Humidity;BMP_temperature;BMP_pressure;BME280_temperature;BME280_humidity;BME280_pressure;Samples;Min_cycle;Max_cycle;Signal;HPM_P1;HPM_P2
2022/07/22 00:00:11;;;;;;;1999.90;999.90;;;17.00;99.90;;;;;;4899700;29;20517;-79
2022/07/22 00:02:37;;;;;;;1999.90;999.90;;;18.10;99.90;;;;;;4900075;29;20134;-79
2022/07/22 00:05:03;;;;;;;1999.90;999.90;;;16.90;99.90;;;;;;4899995;29;20493;-79
2022/07/22 00:07:28;;;;;;;1999.90;999.90;;;16.70;99.90;;;;;;4899643;29;20383;-78
2022/07/22 00:09:55;;;;;;;1999.90;999.90;;;17.10;99.90;;;;;;4898963;29;20052;-78
2022/07/22 00:12:20;;;;;;;1999.90;999.90;;;17.40;99.90;;;;;;4899599;29;20484;-78
2022/07/22 00:14:46;;;;;;;1999.90;999.90;;;17.00;99.90;;;;;;4899990;29;20047;-78
2022/07/22 00:17:12;;;;;;;1999.90;999.90;;;18.10;99.90;;;;;;4899530;29;20056;-78
2022/07/22 00:19:37;;;;;;;1999.90;999.90;;;18.10;99.90;;;;;;4899881;29;20443;-79
2022/07/22 00:22:03;;;;;;;1999.90;999.90;;;17.40;99.90;;;;;;4899099;29;20281;-79
2022/07/22 00:24:29;;;;;;;1999.90;999.90;;;17.80;99.90;;;;;;4898591;29;20108;-79
2022/07/22 00:26:55;;;;;;;1999.90;999.90;;;17.70;99.90;;;;;;4899656;29;20494;-78
2022/07/22 00:29:20;;;;;;;1999.90;999.90;;;18.10;99.90;;;;;;4899460;29;20132;-78
2022/07/22 00:31:46;;;;;;;1999.90;999.90;;;18.10;99.90;;;;;;4899594;29;20053;-78
2022/07/22 00:34:12;;;;;;;1999.90;999.90;;;16.70;99.90;;;;;;4898240;29;20055;-78
2022/07/22 00:36:38;;;;;;;1999.90;999.90;;;18.10;99.90;;;;;;4899644;29;20049;-78
2022/07/22 00:39:03;;;;;;;1999.90;999.90;;;16.60;99.90;;;;;;4899177;29;20045;-78
2022/07/22 00:41:29;;;;;;;1999.90;999.90;;;17.70;99.90;;;;;;4899300;29;20132;-78
2022/07/22 00:44:03;;;;;;;1999.90;999.90;;;17.00;99.90;;;;;;4899450;29;20049;-79
2022/07/22 00:46:30;;;;;;;1999.90;999.90;;;17.90;99.90;;;;;;4899217;29;20056;-78
2022/07/22 00:48:57;;;;;;;1999.90;999.90;;;16.70;99.90;;;;;;4897277;29;20048;-79
2022/07/22 00:51:25;;;;;;;1999.90;999.90;;;16.60;99.90;;;;;;4897783;29;20324;-81
2022/07/22 00:53:52;;;;;;;1999.90;999.90;;;16.60;99.90;;;;;;4898956;29;20060;-79
2022/07/22 00:56:19;;;;;;;1999.90;999.90;;;16.60;99.90;;;;;;4898949;29;20128;-78
2022/07/22 00:58:46;;;;;;;1999.90;999.90;;;17.70;99.90;;;;;;4897885;29;20490;-78
2022/07/22 01:01:13;;;;;;;;;;;17.50;99.90;;;;;;4898303;29;20052;-78
2022/07/22 01:03:39;;;;;;;1999.90;999.90;;;16.60;99.90;;;;;;4899003;29;19930;-78
2022/07/22 01:06:05;;;;;;;1999.90;999.90;;;16.50;99.90;;;;;;4899005;29;20041;-79
2022/07/22 01:08:32;;;;;;;1999.90;999.90;;;16.60;99.90;;;;;;4898055;29;20562;-78
2022/07/22 01:11:14;;;;;;;1999.90;999.90;;;17.60;99.90;;;;;;4898904;29;20048;-79
2022/07/22 01:13:40;;;;;;;1999.90;999.90;;;17.80;99.90;;;;;;4898803;29;20048;-78
2022/07/22 01:16:08;;;;;;;1999.90;999.90;;;17.70;99.90;;;;;;4898619;29;20510;-79
2022/07/22 01:18:34;;;;;;;1999.90;999.90;;;16.80;99.90;;;;;;4898759;29;20084;-79
2022/07/22 01:21:00;;;;;;;1999.90;999.90;;;16.40;99.90;;;;;;4898788;29;20399;-79
2022/07/22 01:23:26;;;;;;;1999.90;999.90;;;16.60;99.90;;;;;;4896940;29;20048;-79
2022/07/22 01:25:52;;;;;;;1999.90;999.90;;;17.60;99.90;;;;;;4898682;29;20079;-78
2022/07/22 01:28:18;;;;;;;1999.90;999.90;;;17.80;99.90;;;;;;4897951;29;20040;-79
2022/07/22 01:30:43;;;;;;;1999.90;999.90;;;17.60;99.90;;;;;;4898580;29;20136;-79
2022/07/22 01:33:09;;;;;;;1999.90;999.90;;;16.70;99.90;;;;;;4898476;29;20115;-79
2022/07/22 01:35:35;;;;;;;1999.90;999.90;;;17.50;99.90;;;;;;4898258;29;20069;-80
2022/07/22 01:38:00;;;;;;;1999.90;999.90;;;16.50;99.90;;;;;;4898071;29;20083;-79
2022/07/22 01:40:26;;;;;;;1999.90;999.90;;;16.50;99.90;;;;;;4898175;29;20398;-79
2022/07/22 01:42:52;;;;;;;1999.90;999.90;;;16.40;99.90;;;;;;4898275;29;20049;-79
2022/07/22 01:45:17;;;;;;;1999.90;999.90;;;16.50;99.90;;;;;;4898028;29;20382;-79
2022/07/22 01:47:43;;;;;;;1888.35;999.90;;;17.70;99.90;;;;;;4898184;29;20059;-80
2022/07/22 01:50:11;;;;;;;1999.90;999.90;;;16.60;99.90;;;;;;4898332;29;20052;-80
2022/07/22 01:52:37;;;;;;;;;;;17.60;99.90;;;;;;4897672;29;20072;-80
2022/07/22 01:55:05;;;;;;;1999.90;999.90;;;16.60;99.90;;;;;;4898186;29;19923;-79
2022/07/22 01:57:30;;;;;;;1999.90;999.90;;;17.70;99.90;;;;;;4897724;29;20044;-79
2022/07/22 01:59:56;;;;;;;1999.90;999.90;;;16.60;99.90;;;;;;4897748;29;20044;-80
2022/07/22 02:02:22;;;;;;;1999.90;999.90;;;16.70;99.90;;;;;;4897469;29;20048;-80
2022/07/22 02:04:47;;;;;;;1999.90;999.90;;;16.60;99.90;;;;;;4898078;29;20088;-80
2022/07/22 02:07:13;;;;;;;1921.05;999.90;;;16.70;99.90;;;;;;4897623;29;20045;-81
2022/07/22 02:09:39;;;;;;;1912.85;999.90;;;16.70;99.90;;;;;;4896708;29;20052;-80
2022/07/22 02:12:04;;;;;;;1936.80;999.90;;;17.30;99.90;;;;;;4897865;29;20060;-80
2022/07/22 02:14:30;;;;;;;1619.30;999.90;;;17.50;99.90;;;;;;4897637;29;20041;-81
2022/07/22 02:16:56;;;;;;;1903.18;999.90;;;16.30;99.90;;;;;;4897747;29;20100;-80
2022/07/22 02:19:22;;;;;;;1824.40;999.90;;;16.60;99.90;;;;;;4897556;29;20048;-80
2022/07/22 02:21:47;;;;;;;1938.10;999.90;;;17.40;99.90;;;;;;4897067;29;20057;-83
2022/07/22 02:24:13;;;;;;;1999.90;999.90;;;16.30;99.90;;;;;;4897662;29;20438;-79
2022/07/22 02:26:39;;;;;;;1906.43;999.90;;;16.30;99.90;;;;;;4897330;29;20052;-80
2022/07/22 02:29:06;;;;;;;1983.40;999.90;;;16.70;99.90;;;;;;4897668;29;20149;-82
2022/07/22 02:31:32;;;;;;;1999.90;999.90;;;16.40;99.90;;;;;;4896130;29;20060;-80
2022/07/22 02:33:57;;;;;;;1845.25;999.90;;;17.40;99.90;;;;;;4897293;29;20096;-81
2022/07/22 02:36:23;;;;;;;1969.47;999.90;;;16.30;99.90;;;;;;4897318;29;20112;-81
2022/07/22 02:38:49;;;;;;;1914.68;999.90;;;16.30;99.90;;;;;;4897297;29;20402;-80
2022/07/22 02:41:14;;;;;;;1516.07;999.90;;;16.40;99.90;;;;;;4897675;29;20052;-80
2022/07/22 02:43:40;;;;;;;1656.80;999.63;;;16.30;99.90;;;;;;4897210;29;20053;-80
2022/07/22 02:46:06;;;;;;;1872.82;999.90;;;16.50;99.90;;;;;;4897546;29;20490;-80
2022/07/22 02:48:33;;;;;;;1871.10;999.90;;;16.30;99.90;;;;;;4896296;29;20048;-81
2022/07/22 02:50:58;;;;;;;1856.17;999.90;;;16.80;99.90;;;;;;4897578;29;20056;-81
2022/07/22 02:53:24;;;;;;;1955.30;999.90;;;16.80;99.90;;;;;;4895032;29;20301;-81
2022/07/22 02:55:50;;;;;;;1999.90;999.90;;;16.60;99.90;;;;;;4897513;29;20049;-80
2022/07/22 02:58:16;;;;;;;1988.53;999.90;;;17.40;99.90;;;;;;4897385;29;20079;-80
2022/07/22 03:00:42;;;;;;;1999.90;999.90;;;16.30;99.90;;;;;;4897178;29;20049;-80
2022/07/22 03:03:07;;;;;;;1804.75;999.90;;;16.70;99.90;;;;;;4897296;29;20049;-80
2022/07/22 03:05:33;;;;;;;1738.32;999.90;;;16.80;99.90;;;;;;4897092;29;20058;-82
2022/07/22 03:07:59;;;;;;;1730.82;999.90;;;16.20;99.90;;;;;;4896989;29;20442;-81
2022/07/22 03:10:25;;;;;;;1819.82;999.90;;;16.60;99.90;;;;;;4897111;29;20175;-81
2022/07/22 03:12:50;;;;;;;1616.28;999.90;;;16.70;99.90;;;;;;4900025;29;20040;-81
2022/07/22 03:15:16;;;;;;;1999.90;999.90;;;17.30;99.90;;;;;;4901064;29;20048;-81
2022/07/22 03:17:42;;;;;;;1999.90;999.90;;;16.50;99.90;;;;;;4900276;29;20055;-81
2022/07/22 03:20:10;;;;;;;1999.90;999.90;;;17.00;99.90;;;;;;4900935;29;20053;-81
2022/07/22 03:22:36;;;;;;;1900.45;999.90;;;16.50;99.90;;;;;;4900178;29;20052;-81
2022/07/22 03:25:02;;;;;;;1999.90;999.90;;;16.40;99.90;;;;;;4900810;29;20095;-81
2022/07/22 03:27:28;;;;;;;1722.65;999.90;;;17.30;99.90;;;;;;4900419;29;20052;-80
2022/07/22 03:29:53;;;;;;;1924.80;999.90;;;16.50;99.90;;;;;;4900830;29;20052;-81
2022/07/22 03:32:19;;;;;;;1954.88;999.90;;;16.30;99.90;;;;;;4900550;29;20044;-81
2022/07/22 03:34:45;;;;;;;1725.20;999.90;;;16.60;99.90;;;;;;4900429;29;20524;-81
2022/07/22 03:37:11;;;;;;;1522.30;998.72;;;17.40;99.90;;;;;;4900265;29;20054;-81
2022/07/22 03:39:36;;;;;;;1594.85;999.90;;;16.30;99.90;;;;;;4900324;29;20052;-81
2022/07/22 03:42:02;;;;;;;1998.13;999.90;;;17.30;99.90;;;;;;4900526;29;20048;-82
2022/07/22 03:44:28;;;;;;;1855.78;999.90;;;17.30;99.90;;;;;;4900190;29;20112;-81
2022/07/22 03:46:54;;;;;;;1798.13;999.90;;;16.20;99.90;;;;;;4900406;29;20052;-81
2022/07/22 03:49:20;;;;;;;1521.57;999.78;;;17.10;99.90;;;;;;4900486;29;20050;-81
2022/07/22 03:51:45;;;;;;;1849.82;999.90;;;16.60;99.90;;;;;;4899519;29;20059;-85
2022/07/22 03:54:11;;;;;;;1775.68;999.90;;;16.90;99.90;;;;;;4900323;29;20112;-81
2022/07/22 03:56:37;;;;;;;1634.65;999.90;;;17.20;99.90;;;;;;4899999;29;20056;-81
2022/07/22 03:59:03;;;;;;;1813.95;999.90;;;16.80;99.90;;;;;;4900185;29;20049;-81
2022/07/22 04:01:28;;;;;;;1754.47;999.90;;;16.50;99.90;;;;;;4899885;29;20091;-81
2022/07/22 04:03:54;;;;;;;1773.72;999.90;;;17.30;99.90;;;;;;4899825;29;20049;-82
2022/07/22 04:06:20;;;;;;;1922.30;999.90;;;17.20;99.90;;;;;;4883310;29;20096;-82
2022/07/22 04:08:46;;;;;;;1693.25;999.90;;;16.30;99.90;;;;;;4899461;29;20059;-81
2022/07/22 04:11:11;;;;;;;1506.90;999.90;;;17.00;99.90;;;;;;4900053;29;20108;-81
2022/07/22 04:13:37;;;;;;;1613.15;999.90;;;17.30;99.90;;;;;;4899592;29;20048;-81
2022/07/22 04:16:03;;;;;;;1777.30;999.90;;;16.90;99.90;;;;;;4899017;29;20060;-81
2022/07/22 04:18:32;;;;;;;1649.03;999.90;;;16.40;99.90;;;;;;4899573;29;20052;-81
2022/07/22 04:20:58;;;;;;;1680.47;999.90;;;17.20;99.90;;;;;;4899596;29;20509;-82
2022/07/22 04:23:24;;;;;;;1983.00;999.90;;;17.20;99.90;;;;;;4898368;29;20052;-81
2022/07/22 04:25:50;;;;;;;1984.55;999.90;;;16.90;99.90;;;;;;4899446;29;20475;-82
2022/07/22 04:28:16;;;;;;;1840.68;999.90;;;16.40;99.90;;;;;;4899642;29;20056;-81
2022/07/22 04:30:41;;;;;;;1832.43;999.90;;;17.30;99.90;;;;;;4899460;29;20045;-82
2022/07/22 04:33:07;;;;;;;1739.88;999.90;;;16.90;99.90;;;;;;4899587;29;20079;-83
2022/07/22 04:35:33;;;;;;;1647.97;999.90;;;16.50;99.90;;;;;;4899368;29;20044;-82
2022/07/22 04:37:59;;;;;;;1629.60;999.90;;;16.40;99.90;;;;;;4899190;29;20052;-82
2022/07/22 04:40:24;;;;;;;1642.13;999.90;;;17.30;99.90;;;;;;4899538;29;20059;-82
2022/07/22 04:42:50;;;;;;;1664.30;999.90;;;16.70;99.90;;;;;;4899082;29;20048;-81
2022/07/22 04:45:16;;;;;;;1897.60;999.90;;;16.60;99.90;;;;;;4899447;29;20041;-82
2022/07/22 04:47:42;;;;;;;1635.07;999.90;;;17.20;99.90;;;;;;4898990;29;20148;-82
2022/07/22 04:50:08;;;;;;;1744.78;999.90;;;17.40;99.90;;;;;;4898151;29;20552;-82
2022/07/22 04:52:34;;;;;;;1975.30;999.90;;;16.60;99.90;;;;;;4898325;29;20056;-83
2022/07/22 04:54:59;;;;;;;1713.78;999.90;;;17.00;99.90;;;;;;4899296;29;20140;-82
2022/07/22 04:57:26;;;;;;;1898.95;999.90;;;17.30;99.90;;;;;;4899137;29;20059;-82
2022/07/22 04:59:52;;;;;;;1908.95;999.90;;;17.40;99.90;;;;;;4898642;29;20545;-82
2022/07/22 05:02:19;;;;;;;1885.75;999.90;;;16.50;99.90;;;;;;4899087;29;20088;-83
2022/07/22 05:04:44;;;;;;;1878.55;999.90;;;17.40;99.90;;;;;;4898767;29;20041;-82
2022/07/22 05:07:11;;;;;;;1539.78;999.90;;;17.30;99.90;;;;;;4898687;29;20048;-83
2022/07/22 05:09:36;;;;;;;1687.45;999.90;;;17.50;99.90;;;;;;4898739;29;20052;-82
2022/07/22 05:12:03;;;;;;;1683.60;999.90;;;16.80;99.90;;;;;;4898873;29;20048;-82
2022/07/22 05:14:29;;;;;;;1824.15;999.90;;;17.00;99.90;;;;;;4898583;29;20489;-82
2022/07/22 05:16:54;;;;;;;1999.90;999.90;;;17.40;99.90;;;;;;4898439;29;20083;-82
2022/07/22 05:19:20;;;;;;;1999.90;999.90;;;17.10;99.90;;;;;;4899144;29;20048;-82
2022/07/22 05:21:45;;;;;;;1999.90;999.90;;;17.60;99.90;;;;;;4898186;29;20052;-84
2022/07/22 05:24:12;;;;;;;1999.90;999.90;;;16.80;99.90;;;;;;4898443;29;20063;-82
2022/07/22 05:26:38;;;;;;;1999.90;999.90;;;17.00;99.90;;;;;;4898270;29;20561;-82
2022/07/22 05:29:03;;;;;;;1999.90;999.90;;;16.80;99.90;;;;;;4898535;29;20085;-83
2022/07/22 05:31:29;;;;;;;1999.90;999.90;;;17.50;99.90;;;;;;4898631;29;20152;-82
2022/07/22 05:33:55;;;;;;;1999.90;999.90;;;17.10;99.90;;;;;;4898183;29;20379;-83
2022/07/22 05:36:21;;;;;;;1999.90;999.90;;;17.00;99.90;;;;;;4898375;29;20184;-83
2022/07/22 05:38:47;;;;;;;1576.75;992.15;;;17.70;99.90;;;;;;4897751;29;20134;-83
2022/07/22 05:41:12;;;;;;;1815.00;999.90;;;17.30;99.90;;;;;;4898488;29;20148;-82
2022/07/22 05:43:38;;;;;;;1949.63;999.90;;;17.20;99.90;;;;;;4897991;29;20389;-85
2022/07/22 05:46:04;;;;;;;1432.63;959.50;;;17.30;99.90;;;;;;4898348;29;20052;-83
2022/07/22 05:48:30;;;;;;;1725.07;999.90;;;17.60;99.90;;;;;;4898206;29;20056;-83
2022/07/22 05:50:56;;;;;;;1684.38;999.90;;;17.60;99.90;;;;;;4897993;29;20060;-83
2022/07/22 05:53:22;;;;;;;1714.13;999.90;;;17.40;99.90;;;;;;4897784;29;20064;-83
2022/07/22 05:55:48;;;;;;;1641.20;999.90;;;17.20;99.90;;;;;;4897900;29;20049;-83
2022/07/22 05:58:14;;;;;;;1658.03;999.90;;;18.00;99.90;;;;;;4896668;29;20072;-83
2022/07/22 06:00:41;;;;;;;1880.22;999.90;;;17.60;99.90;;;;;;4896947;29;20135;-85
2022/07/22 06:03:07;;;;;;;1984.97;999.90;;;17.40;99.90;;;;;;4897908;29;20057;-83
2022/07/22 06:05:35;;;;;;;1983.80;999.90;;;17.80;99.90;;;;;;4898020;29;20047;-82
2022/07/22 06:08:01;;;;;;;;;;;17.90;99.90;;;;;;4897775;29;20056;-83
2022/07/22 06:10:26;;;;;;;1999.90;999.90;;;17.50;99.90;;;;;;4898022;29;19923;-84
2022/07/22 06:12:52;;;;;;;1999.90;999.90;;;18.20;99.90;;;;;;4897576;29;20048;-83
2022/07/22 06:15:18;;;;;;;1736.72;999.90;;;17.60;99.90;;;;;;4897899;29;20108;-84
2022/07/22 06:17:43;;;;;;;1655.28;999.90;;;17.50;99.90;;;;;;4897515;29;20048;-83
2022/07/22 06:20:09;;;;;;;1991.72;999.90;;;17.50;99.90;;;;;;4897849;29;20052;-83
2022/07/22 06:22:35;;;;;;;1999.90;999.90;;;18.20;99.90;;;;;;4897436;29;20474;-83
2022/07/22 06:25:01;;;;;;;1975.55;999.90;;;17.70;99.90;;;;;;4896232;29;20052;-83
2022/07/22 06:27:26;;;;;;;1785.65;999.90;;;17.90;99.90;;;;;;4897661;29;20096;-83
2022/07/22 06:29:52;;;;;;;1798.72;999.90;;;17.80;99.90;;;;;;4896601;29;20139;-83
2022/07/22 06:32:17;;;;;;;1889.30;999.90;;;18.20;99.90;;;;;;4897643;29;20048;-83
2022/07/22 06:34:43;;;;;;;1951.82;999.90;;;18.40;99.90;;;;;;4896329;29;20103;-84
2022/07/22 06:37:09;;;;;;;1999.90;999.90;;;18.30;99.90;;;;;;4897314;29;20097;-83
2022/07/22 06:39:34;;;;;;;1999.90;999.90;;;18.20;99.90;;;;;;4897641;29;20044;-84
2022/07/22 06:42:00;;;;;;;1992.93;999.90;;;18.20;99.90;;;;;;4897293;29;20053;-83
2022/07/22 06:44:26;;;;;;;1999.90;999.90;;;17.90;99.90;;;;;;4897632;29;20435;-84
2022/07/22 06:46:51;;;;;;;1944.90;999.90;;;17.90;99.90;;;;;;4898291;29;20050;-84
2022/07/22 06:49:17;;;;;;;1679.85;999.90;;;18.40;99.90;;;;;;4901560;29;20132;-83
2022/07/22 06:51:43;;;;;;;1999.38;999.90;;;18.10;99.90;;;;;;4900844;29;20048;-87
2022/07/22 06:54:08;;;;;;;1890.25;999.90;;;18.50;99.90;;;;;;4901297;29;20406;-84
2022/07/22 06:56:34;;;;;;;1960.05;999.90;;;18.30;99.90;;;;;;4900424;29;20056;-84
2022/07/22 06:59:00;;;;;;;1999.90;999.90;;;18.80;99.90;;;;;;4900645;29;20091;-84
2022/07/22 07:01:25;;;;;;;1999.90;999.90;;;18.50;99.90;;;;;;4900179;29;20107;-84
2022/07/22 07:03:51;;;;;;;1999.90;999.90;;;18.60;99.90;;;;;;4899986;29;20048;-84
2022/07/22 07:06:17;;;;;;;1999.90;999.90;;;18.70;99.90;;;;;;4901135;29;20103;-85
2022/07/22 07:08:42;;;;;;;1999.90;999.90;;;18.60;99.90;;;;;;4900811;29;20044;-85
2022/07/22 07:11:08;;;;;;;1999.90;999.90;;;18.50;99.90;;;;;;4899820;29;20057;-85
2022/07/22 07:13:34;;;;;;;1999.90;999.90;;;18.50;99.90;;;;;;4901070;29;20439;-84
2022/07/22 07:16:00;;;;;;;1999.90;999.90;;;18.60;99.90;;;;;;4900772;29;20055;-85
2022/07/22 07:18:25;;;;;;;1999.90;999.90;;;18.70;99.90;;;;;;4900957;29;20059;-85
2022/07/22 07:20:51;;;;;;;1999.90;999.90;;;18.50;99.90;;;;;;4899541;29;20060;-85
2022/07/22 07:23:17;;;;;;;1999.90;999.90;;;18.60;99.90;;;;;;4899670;29;20056;-85
2022/07/22 07:25:43;;;;;;;1999.90;999.90;;;18.70;99.90;;;;;;4915689;29;20121;-86
2022/07/22 07:28:08;;;;;;;1999.90;999.90;;;18.70;99.90;;;;;;4900372;29;20052;-85
2022/07/22 07:30:34;;;;;;;1999.90;999.90;;;18.80;99.90;;;;;;4901236;29;20083;-87
2022/07/22 07:33:00;;;;;;;1999.90;983.05;;;18.80;99.90;;;;;;4900394;29;20044;-86
2022/07/22 07:35:26;;;;;;;1999.90;823.90;;;18.90;99.90;;;;;;4884246;29;20056;-86
2022/07/22 07:37:53;;;;;;;1999.90;999.90;;;18.90;1.00;;;;;;4900031;29;20056;-86
2022/07/22 07:40:19;;;;;;;1999.90;999.90;;;19.00;99.90;;;;;;4900576;29;20049;-86
2022/07/22 07:42:45;;;;;;;1999.90;999.90;;;19.10;1.00;;;;;;4900494;29;20096;-86
2022/07/22 07:45:11;;;;;;;1999.90;815.35;;;19.20;99.90;;;;;;4900459;29;20048;-86
2022/07/22 07:47:36;;;;;;;1396.82;312.50;;;19.30;1.00;;;;;;4900412;29;20044;-87
2022/07/22 07:50:05;;;;;;;1311.65;431.20;;;19.40;99.90;;;;;;4900198;29;20087;-86
2022/07/22 07:52:30;;;;;;;1999.90;999.90;;;19.50;99.90;;;;;;4899767;29;20064;-86
2022/07/22 07:54:56;;;;;;;1982.03;636.67;;;19.40;1.00;;;;;;4899086;29;20049;-86
2022/07/22 07:57:22;;;;;;;1999.90;999.90;;;19.50;99.90;;;;;;4899802;29;20569;-86
2022/07/22 07:59:48;;;;;;;1999.90;999.90;;;19.60;99.90;;;;;;4898996;29;20131;-86
2022/07/22 08:02:13;;;;;;;1999.90;999.90;;;19.60;99.20;;;;;;4900180;29;20061;-86
2022/07/22 08:04:39;;;;;;;1999.90;959.17;;;19.60;99.90;;;;;;4900081;29;20060;-86
2022/07/22 08:07:06;;;;;;;1983.43;749.30;;;19.60;99.90;;;;;;4899485;29;20506;-86
2022/07/22 08:09:35;;;;;;;1558.15;644.85;;;19.60;99.90;;;;;;4900122;29;20446;-86
2022/07/22 08:12:01;;;;;;;1999.90;999.90;;;19.60;99.90;;;;;;4898710;29;20133;-86
2022/07/22 08:14:26;;;;;;;1753.03;830.63;;;19.60;99.90;;;;;;4899045;29;20131;-86
2022/07/22 08:16:52;;;;;;;1999.90;999.90;;;19.70;99.90;;;;;;4899548;29;20060;-87
2022/07/22 08:19:18;;;;;;;1999.90;870.38;;;19.70;99.90;;;;;;4898923;29;20045;-86
2022/07/22 08:21:44;;;;;;;1999.90;999.90;;;19.90;99.90;;;;;;4898714;29;20052;-88
2022/07/22 08:24:10;;;;;;;1999.90;820.42;;;20.00;99.90;;;;;;4899692;29;20071;-86
2022/07/22 08:26:36;;;;;;;1999.90;999.90;;;20.20;99.90;;;;;;4898609;29;20095;-86
2022/07/22 08:29:03;;;;;;;1999.90;999.90;;;20.30;99.90;;;;;;4899381;29;20056;-86
2022/07/22 08:31:31;;;;;;;1943.47;727.70;;;20.50;99.90;;;;;;4898577;29;20053;-86
2022/07/22 08:33:59;;;;;;;;;;;20.40;48.10;;;;;;4898559;29;20055;-86
2022/07/22 08:36:24;;;;;;;1999.90;999.90;;;20.30;25.00;;;;;;4898597;29;19923;-86
2022/07/22 08:38:50;;;;;;;1999.90;999.90;;;20.20;1.00;;;;;;4897924;29;20051;-86
2022/07/22 08:41:16;;;;;;;1915.30;643.55;;;20.20;1.00;;;;;;4867605;29;20053;-86
2022/07/22 08:43:44;;;;;;;1999.90;999.90;;;20.10;1.00;;;;;;4899404;29;20112;-87
2022/07/22 08:46:10;;;;;;;1999.90;999.90;;;20.10;1.00;;;;;;4898013;29;20059;-87
2022/07/22 08:48:39;;;;;;;1595.63;706.92;;;20.00;1.00;;;;;;4898054;29;20406;-87
2022/07/22 08:51:06;;;;;;;1999.90;999.90;;;19.80;1.00;;;;;;4898123;29;20049;-87
2022/07/22 08:53:32;;;;;;;1999.90;999.90;;;19.70;1.00;;;;;;4897622;29;20063;-86
2022/07/22 08:56:01;;;;;;;1999.90;938.05;;;19.60;1.00;;;;;;4898958;29;20166;-86
2022/07/22 08:58:27;;;;;;;1999.90;999.90;;;19.50;1.00;;;;;;4883004;29;20052;-86
2022/07/22 09:01:07;;;;;;;1999.90;999.90;;;19.40;1.00;;;;;;4866997;29;20136;-86
2022/07/22 09:03:37;;;;;;;1993.13;723.63;;;19.30;1.00;;;;;;4897994;29;20087;-87
2022/07/22 09:06:04;;;;;;;1564.75;691.70;;;19.20;1.00;;;;;;4913255;29;20055;-86
2022/07/22 09:08:30;;;;;;;1999.90;999.90;;;18.80;1.00;;;;;;4898643;29;20496;-86
2022/07/22 09:10:55;;;;;;;1999.90;999.90;;;19.30;1.00;;;;;;4881794;29;20053;-87
2022/07/22 09:13:23;;;;;;;1999.90;999.90;;;19.30;1.00;;;;;;4866843;29;20509;-86
2022/07/22 09:15:53;;;;;;;1701.47;640.58;;;19.30;1.00;;;;;;4897979;29;20056;-86
2022/07/22 09:18:18;;;;;;;1999.90;999.90;;;19.30;1.00;;;;;;4882181;29;20079;-87
2022/07/22 09:20:44;;;;;;;1999.90;999.90;;;19.30;1.00;;;;;;4897810;29;20478;-87
2022/07/22 09:23:12;;;;;;;1999.90;999.90;;;19.30;1.00;;;;;;4898295;29;20080;-86
2022/07/22 09:25:39;;;;;;;1999.90;996.58;;;19.30;1.00;;;;;;4898623;29;20048;-87
2022/07/22 09:28:05;;;;;;;1999.90;999.90;;;19.40;1.00;;;;;;4851033;29;20188;-87
2022/07/22 09:30:37;;;;;;;1999.90;999.90;;;19.40;1.00;;;;;;4882088;29;20519;-86
2022/07/22 09:33:03;;;;;;;1999.90;999.90;;;19.50;1.00;;;;;;4898290;29;20410;-86
2022/07/22 09:35:29;;;;;;;1202.30;504.00;;;19.40;1.00;;;;;;4882055;29;20581;-86
2022/07/22 09:37:59;;;;;;;1465.88;760.83;;;19.40;1.00;;;;;;4881321;29;20160;-86
2022/07/22 09:40:27;;;;;;;1999.90;999.90;;;19.30;1.00;;;;;;4897231;29;20052;-86
2022/07/22 09:42:58;;;;;;;1898.15;999.90;;;19.10;1.00;;;;;;4897415;29;20055;-86
2022/07/22 09:45:27;;;;;;;1692.57;884.00;;;19.00;1.00;;;;;;4881735;29;20210;-86
2022/07/22 09:47:55;;;;;;;1824.55;959.42;;;18.80;1.00;;;;;;4881737;29;20398;-86
2022/07/22 09:50:23;;;;;;;1999.90;994.30;;;18.80;1.00;;;;;;4896788;29;20075;-86
2022/07/22 09:52:50;;;;;;;1999.90;999.90;;;18.80;1.00;;;;;;4896579;29;20056;-86
2022/07/22 09:55:19;;;;;;;1573.60;999.90;;;18.90;1.00;;;;;;4881477;29;20082;-87
2022/07/22 09:57:46;;;;;;;1888.95;920.88;;;18.90;1.00;;;;;;4881597;29;20048;-88
2022/07/22 10:00:13;;;;;;;1999.90;999.90;;;18.90;1.00;;;;;;4896904;29;20048;-87
2022/07/22 10:02:42;;;;;;;;;;;19.00;1.00;;;;;;4881797;29;20354;-87
2022/07/22 10:05:12;;;;;;;1635.05;979.53;;;19.10;1.00;;;;;;4896832;29;19924;-86
2022/07/22 10:07:40;;;;;;;1999.90;999.90;;;19.10;1.00;;;;;;4881065;29;20095;-86
2022/07/22 10:10:09;;;;;;;1999.90;999.90;;;19.10;1.00;;;;;;4881119;29;20059;-86
2022/07/22 10:12:37;;;;;;;1983.10;830.08;;;19.20;1.00;;;;;;4881229;29;20052;-86
2022/07/22 10:15:03;;;;;;;1216.50;448.00;;;19.40;1.00;;;;;;4881035;29;20058;-87
2022/07/22 10:17:30;;;;;;;1999.90;999.90;;;19.50;1.00;;;;;;4865453;29;20056;-87
2022/07/22 10:19:57;;;;;;;1991.00;999.90;;;19.60;1.00;;;;;;4881285;29;20052;-87
2022/07/22 10:22:41;;;;;;;1665.38;999.90;;;19.70;1.00;;;;;;4895071;29;20048;-87
2022/07/22 10:25:09;;;;;;;1778.40;999.90;;;19.90;1.00;;;;;;4880840;29;20481;-86
2022/07/22 10:27:45;;;;;;;1999.90;999.90;;;19.90;1.00;;;;;;4896606;29;20052;-86
2022/07/22 10:30:12;;;;;;;1857.97;999.90;;;20.00;1.00;;;;;;4896333;29;20059;-86
2022/07/22 10:32:38;;;;;;;1999.90;999.90;;;20.10;1.00;;;;;;4880723;29;20517;-87
2022/07/22 10:35:04;;;;;;;1947.35;697.13;;;20.20;1.00;;;;;;4865313;29;20048;-86
2022/07/22 10:37:41;;;;;;;1999.90;999.90;;;20.20;1.00;;;;;;4880624;29;20059;-86
2022/07/22 10:40:19;;;;;;;1999.90;999.90;;;20.40;1.00;;;;;;4865899;29;20056;-86
2022/07/22 10:42:57;;;;;;;1999.90;938.08;;;20.50;1.00;;;;;;4880900;29;20422;-86
2022/07/22 10:45:28;;;;;;;1999.90;999.90;;;20.60;1.00;;;;;;4880561;29;20071;-87
2022/07/22 10:47:59;;;;;;;1999.90;999.90;;;20.70;1.00;;;;;;4880677;29;20044;-87
2022/07/22 10:50:37;;;;;;;1999.90;999.90;;;20.90;1.00;;;;;;4880837;29;20530;-86
2022/07/22 10:53:09;;;;;;;1484.75;999.90;;;21.10;1.00;;;;;;4880011;29;20074;-86
2022/07/22 10:55:35;;;;;;;1999.90;999.90;;;21.20;1.00;;;;;;4896540;29;20052;-86
2022/07/22 10:58:35;;;;;;;1999.90;969.08;;;21.40;1.00;;;;;;4880745;29;20056;-86
2022/07/22 11:01:04;;;;;;;1999.90;991.92;;;21.50;99.90;;;;;;4896309;29;20064;-87
2022/07/22 11:03:32;;;;;;;1946.93;999.90;;;21.60;99.90;;;;;;4880408;29;20055;-87
2022/07/22 11:06:16;;;;;;;1999.90;999.90;;;21.50;99.90;;;;;;4880707;29;20143;-86
2022/07/22 11:08:44;;;;;;;1999.90;999.90;;;21.60;99.90;;;;;;4880429;29;20494;-86
2022/07/22 11:11:10;;;;;;;1650.15;999.90;;;21.50;99.90;;;;;;4880259;29;20509;-86
2022/07/22 11:13:41;;;;;;;1999.90;999.90;;;21.40;99.90;;;;;;4880687;29;20051;-86
2022/07/22 11:16:24;;;;;;;1999.90;999.90;;;21.50;99.90;;;;;;4880509;29;20246;-88
2022/07/22 11:19:02;;;;;;;1454.68;999.90;;;21.70;99.90;;;;;;4865261;29;20094;-86
2022/07/22 11:21:30;;;;;;;1799.05;999.90;;;21.60;99.90;;;;;;4880331;29;20099;-87
2022/07/22 11:23:58;;;;;;;975.25;855.97;;;21.70;99.90;;;;;;4880100;29;20062;-86
2022/07/22 11:26:46;;;;;;;1070.60;952.08;;;21.90;99.90;;;;;;4880015;29;20055;-87
2022/07/22 11:29:18;;;;;;;1032.90;926.25;;;21.80;99.90;;;;;;4880066;29;20086;-87
2022/07/22 11:31:44;;;;;;;1259.53;974.95;;;21.80;99.90;;;;;;4880458;29;20049;-87
2022/07/22 11:34:15;;;;;;;918.83;837.53;;;21.70;99.90;;;;;;4883213;29;20494;-87
2022/07/22 11:36:44;;;;;;;812.75;746.65;;;21.60;99.90;;;;;;4883881;29;20053;-87
2022/07/22 11:39:12;;;;;;;1548.50;948.80;;;21.50;99.90;;;;;;4883607;29;20057;-87
2022/07/22 11:41:37;;;;;;;;;;;21.40;99.90;;;;;;4884314;29;20462;-86
2022/07/22 11:44:03;;;;;;;703.65;651.53;;;21.30;99.90;;;;;;4883844;29;19927;-87
2022/07/22 11:46:39;;;;;;;1443.97;997.95;;;21.30;99.90;;;;;;4883266;29;20107;-86
2022/07/22 11:49:06;;;;;;;735.60;674.38;;;21.30;99.90;;;;;;4883631;29;20053;-87
2022/07/22 11:51:33;;;;;;;1999.90;999.90;;;21.20;99.90;;;;;;4883529;29;20171;-87
2022/07/22 11:54:00;;;;;;;1664.57;999.90;;;21.20;99.90;;;;;;4867629;29;20498;-87
2022/07/22 11:56:26;;;;;;;1999.90;957.90;;;21.20;99.90;;;;;;4899001;29;20048;-87
2022/07/22 11:58:56;;;;;;;1150.03;963.70;;;21.30;99.90;;;;;;4883339;29;20049;-87
2022/07/22 12:01:27;;;;;;;1843.15;925.30;;;21.40;99.90;;;;;;4868202;29;20052;-87